sensor_id;sensor_type;location;lat;lon;timestamp;temperature;humidity
2945;DHT22;1482;51.398;7.128;2022-10-24T00:01:49;16.40;99.90
2945;DHT22;1482;51.398;7.128;2022-10-24T00:04:15;16.50;99.90
2945;DHT22;1482;51.398;7.128;2022-10-24T00:06:41;16.40;99.90
2945;DHT22;1482;51.398;7.128;2022-10-24T00:09:07;16.50;99.90
2945;DHT22;1482;51.398;7.128;2022-10-24T00:11:33;16.50;99.90
2945;DHT22;1482;51.398;7.128;2022-10-24T00:13:58;16.50;99.90
2945;DHT22;1482;51.398;7.128;2022-10-24T00:16:26;16.50;99.90
2945;DHT22;1482;51.398;7.128;2022-10-24T00:18:52;16.50;99.90
2945;DHT22;1482;51.398;7.128;2022-10-24T00:21:17;16.50;99.90
2945;DHT22;1482;51.398;7.128;2022-10-24T00:23:43;16.60;99.90
2945;DHT22;1482;51.398;7.128;2022-10-24T00:26:10;16.60;99.90
2945;DHT22;1482;51.398;7.128;2022-10-24T00:28:36;16.60;99.90
2945;DHT22;1482;51.398;7.128;2022-10-24T00:31:03;16.60;99.90
2945;DHT22;1482;51.398;7.128;2022-10-24T00:33:29;16.60;99.90
2945;DHT22;1482;51.398;7.128;2022-10-24T00:35:54;16.60;99.90
2945;DHT22;1482;51.398;7.128;2022-10-24T00:38:20;16.60;99.90
2945;DHT22;1482;51.398;7.128;2022-10-24T00:40:45;16.60;99.90
2945;DHT22;1482;51.398;7.128;2022-10-24T00:43:17;16.60;99.90
2945;DHT22;1482;51.398;7.128;2022-10-24T00:45:54;16.60;99.90
2945;DHT22;1482;51.398;7.128;2022-10-24T00:48:31;16.60;99.90
2945;DHT22;1482;51.398;7.128;2022-10-24T00:51:10;16.60;99.90
2945;DHT22;1482;51.398;7.128;2022-10-24T00:53:42;16.70;99.90
2945;DHT22;1482;51.398;7.128;2022-10-24T00:56:11;16.70;99.90
2945;DHT22;1482;51.398;7.128;2022-10-24T00:58:38;16.70;99.90
2945;DHT22;1482;51.398;7.128;2022-10-24T01:01:05;16.70;99.90
2945;DHT22;1482;51.398;7.128;2022-10-24T01:03:33;16.80;99.90
2945;DHT22;1482;51.398;7.128;2022-10-24T01:16:58;16.80;94.00
2945;DHT22;1482;51.398;7.128;2022-10-24T01:22:20;16.80;73.90
2945;DHT22;1482;51.398;7.128;2022-10-24T01:25:03;16.90;65.40
2945;DHT22;1482;51.398;7.128;2022-10-24T01:27:38;16.90;59.90
2945;DHT22;1482;51.398;7.128;2022-10-24T01:30:13;16.90;55.00
2945;DHT22;1482;51.398;7.128;2022-10-24T01:35:32;16.90;46.60
2945;DHT22;1482;51.398;7.128;2022-10-24T01:38:18;16.90;45.20
2945;DHT22;1482;51.398;7.128;2022-10-24T01:40:48;17.00;47.70
2945;DHT22;1482;51.398;7.128;2022-10-24T01:43:18;17.00;49.60
2945;DHT22;1482;51.398;7.128;2022-10-24T01:45:50;17.00;48.60
2945;DHT22;1482;51.398;7.128;2022-10-24T01:48:20;17.00;47.90
2945;DHT22;1482;51.398;7.128;2022-10-24T01:50:48;17.00;45.10
2945;DHT22;1482;51.398;7.128;2022-10-24T01:53:15;17.00;43.50
2945;DHT22;1482;51.398;7.128;2022-10-24T01:55:41;17.00;40.20
2945;DHT22;1482;51.398;7.128;2022-10-24T01:58:08;17.00;43.50
2945;DHT22;1482;51.398;7.128;2022-10-24T02:00:34;17.00;42.30
2945;DHT22;1482;51.398;7.128;2022-10-24T02:05:41;17.00;38.40
2945;DHT22;1482;51.398;7.128;2022-10-24T02:08:12;17.00;36.80
2945;DHT22;1482;51.398;7.128;2022-10-24T02:10:42;17.00;33.30
2945;DHT22;1482;51.398;7.128;2022-10-24T02:13:38;17.00;32.40
2945;DHT22;1482;51.398;7.128;2022-10-24T02:16:06;16.90;33.90
2945;DHT22;1482;51.398;7.128;2022-10-24T02:18:34;16.90;36.10
2945;DHT22;1482;51.398;7.128;2022-10-24T02:21:18;16.90;34.60
2945;DHT22;1482;51.398;7.128;2022-10-24T02:26:31;16.90;30.80
2945;DHT22;1482;51.398;7.128;2022-10-24T02:29:02;16.90;28.70
2945;DHT22;1482;51.398;7.128;2022-10-24T02:31:32;16.90;27.30
2945;DHT22;1482;51.398;7.128;2022-10-24T02:34:00;16.80;26.50
2945;DHT22;1482;51.398;7.128;2022-10-24T02:36:28;16.80;28.20
2945;DHT22;1482;51.398;7.128;2022-10-24T02:38:55;16.90;27.90
2945;DHT22;1482;51.398;7.128;2022-10-24T02:41:25;16.80;23.50
2945;DHT22;1482;51.398;7.128;2022-10-24T02:43:52;16.80;22.80
2945;DHT22;1482;51.398;7.128;2022-10-24T02:46:20;16.80;25.10
2945;DHT22;1482;51.398;7.128;2022-10-24T02:48:55;16.70;25.90
2945;DHT22;1482;51.398;7.128;2022-10-24T02:51:24;16.70;25.40
2945;DHT22;1482;51.398;7.128;2022-10-24T02:53:51;16.70;23.40
2945;DHT22;1482;51.398;7.128;2022-10-24T02:56:18;16.70;24.20
2945;DHT22;1482;51.398;7.128;2022-10-24T02:58:43;16.70;23.30
2945;DHT22;1482;51.398;7.128;2022-10-24T03:01:09;16.70;20.40
2945;DHT22;1482;51.398;7.128;2022-10-24T03:03:34;16.80;21.10
2945;DHT22;1482;51.398;7.128;2022-10-24T03:06:00;16.70;21.30
2945;DHT22;1482;51.398;7.128;2022-10-24T03:08:25;16.70;19.90
2945;DHT22;1482;51.398;7.128;2022-10-24T03:10:51;16.80;19.10
2945;DHT22;1482;51.398;7.128;2022-10-24T03:13:17;16.70;19.20
2945;DHT22;1482;51.398;7.128;2022-10-24T03:15:42;16.70;17.90
2945;DHT22;1482;51.398;7.128;2022-10-24T03:18:08;16.70;15.60
2945;DHT22;1482;51.398;7.128;2022-10-24T03:20:33;16.80;14.50
2945;DHT22;1482;51.398;7.128;2022-10-24T03:22:59;16.80;13.10
2945;DHT22;1482;51.398;7.128;2022-10-24T03:25:25;16.70;13.80
2945;DHT22;1482;51.398;7.128;2022-10-24T03:27:50;16.80;15.50
2945;DHT22;1482;51.398;7.128;2022-10-24T03:30:16;16.80;16.80
2945;DHT22;1482;51.398;7.128;2022-10-24T03:32:41;16.80;16.10
2945;DHT22;1482;51.398;7.128;2022-10-24T03:35:07;16.80;17.40
2945;DHT22;1482;51.398;7.128;2022-10-24T03:37:33;16.80;18.80
2945;DHT22;1482;51.398;7.128;2022-10-24T03:39:58;16.80;17.00
2945;DHT22;1482;51.398;7.128;2022-10-24T03:42:24;16.80;18.10
2945;DHT22;1482;51.398;7.128;2022-10-24T03:44:49;16.80;18.90
2945;DHT22;1482;51.398;7.128;2022-10-24T03:47:15;16.80;18.60
2945;DHT22;1482;51.398;7.128;2022-10-24T03:49:41;16.80;18.30
2945;DHT22;1482;51.398;7.128;2022-10-24T03:52:06;16.80;20.20
2945;DHT22;1482;51.398;7.128;2022-10-24T03:54:32;16.70;20.00
2945;DHT22;1482;51.398;7.128;2022-10-24T03:56:58;16.70;19.00
2945;DHT22;1482;51.398;7.128;2022-10-24T03:59:24;16.70;19.90
2945;DHT22;1482;51.398;7.128;2022-10-24T04:01:49;16.70;17.80
2945;DHT22;1482;51.398;7.128;2022-10-24T04:04:15;16.70;15.90
2945;DHT22;1482;51.398;7.128;2022-10-24T04:06:41;16.60;15.80
2945;DHT22;1482;51.398;7.128;2022-10-24T04:09:07;16.70;14.40
2945;DHT22;1482;51.398;7.128;2022-10-24T04:11:32;16.70;13.00
2945;DHT22;1482;51.398;7.128;2022-10-24T04:13:58;16.60;13.20
2945;DHT22;1482;51.398;7.128;2022-10-24T04:16:25;16.60;14.80
2945;DHT22;1482;51.398;7.128;2022-10-24T04:18:51;16.60;13.80
2945;DHT22;1482;51.398;7.128;2022-10-24T04:21:17;16.60;13.20
2945;DHT22;1482;51.398;7.128;2022-10-24T04:23:43;16.60;12.20
2945;DHT22;1482;51.398;7.128;2022-10-24T04:26:12;16.60;11.60
2945;DHT22;1482;51.398;7.128;2022-10-24T04:28:37;16.60;9.20
2945;DHT22;1482;51.398;7.128;2022-10-24T04:31:03;16.60;7.00
2945;DHT22;1482;51.398;7.128;2022-10-24T04:33:29;16.60;6.60
2945;DHT22;1482;51.398;7.128;2022-10-24T04:35:54;16.50;7.30
2945;DHT22;1482;51.398;7.128;2022-10-24T04:38:20;16.50;9.00
2945;DHT22;1482;51.398;7.128;2022-10-24T04:40:51;16.50;9.20
2945;DHT22;1482;51.398;7.128;2022-10-24T04:43:18;16.50;17.40
2945;DHT22;1482;51.398;7.128;2022-10-24T04:45:44;16.60;7.30
2945;DHT22;1482;51.398;7.128;2022-10-24T04:48:10;16.50;5.80
2945;DHT22;1482;51.398;7.128;2022-10-24T04:50:36;16.50;3.80
2945;DHT22;1482;51.398;7.128;2022-10-24T04:53:03;16.50;4.60
2945;DHT22;1482;51.398;7.128;2022-10-24T04:55:29;16.50;5.30
2945;DHT22;1482;51.398;7.128;2022-10-24T04:57:54;16.50;4.30
2945;DHT22;1482;51.398;7.128;2022-10-24T05:00:20;16.50;3.20
2945;DHT22;1482;51.398;7.128;2022-10-24T05:02:46;16.50;3.30
2945;DHT22;1482;51.398;7.128;2022-10-24T05:05:11;16.40;6.60
2945;DHT22;1482;51.398;7.128;2022-10-24T05:07:37;16.50;20.80
2945;DHT22;1482;51.398;7.128;2022-10-24T05:10:04;16.60;15.50
2945;DHT22;1482;51.398;7.128;2022-10-24T05:12:29;16.60;10.80
2945;DHT22;1482;51.398;7.128;2022-10-24T05:14:55;16.60;4.40
2945;DHT22;1482;51.398;7.128;2022-10-24T05:17:20;16.60;1.10
2945;DHT22;1482;51.398;7.128;2022-10-24T05:19:46;16.70;1.00
2945;DHT22;1482;51.398;7.128;2022-10-24T05:22:12;16.70;1.00
2945;DHT22;1482;51.398;7.128;2022-10-24T05:24:37;16.70;1.00
2945;DHT22;1482;51.398;7.128;2022-10-24T05:27:03;16.70;1.00
2945;DHT22;1482;51.398;7.128;2022-10-24T05:29:28;16.70;1.00
2945;DHT22;1482;51.398;7.128;2022-10-24T05:31:54;16.60;1.00
2945;DHT22;1482;51.398;7.128;2022-10-24T05:34:19;16.50;1.00
2945;DHT22;1482;51.398;7.128;2022-10-24T05:36:45;16.50;1.00
2945;DHT22;1482;51.398;7.128;2022-10-24T05:39:11;16.50;1.00
2945;DHT22;1482;51.398;7.128;2022-10-24T05:41:36;16.40;1.00
2945;DHT22;1482;51.398;7.128;2022-10-24T05:44:02;16.40;1.00
2945;DHT22;1482;51.398;7.128;2022-10-24T05:46:28;16.40;1.00
2945;DHT22;1482;51.398;7.128;2022-10-24T05:48:53;16.40;1.00
2945;DHT22;1482;51.398;7.128;2022-10-24T05:51:19;16.40;1.00
2945;DHT22;1482;51.398;7.128;2022-10-24T05:53:44;16.30;1.00
2945;DHT22;1482;51.398;7.128;2022-10-24T05:56:10;16.30;1.00
2945;DHT22;1482;51.398;7.128;2022-10-24T05:58:35;16.30;1.00
2945;DHT22;1482;51.398;7.128;2022-10-24T06:01:01;16.30;1.00
2945;DHT22;1482;51.398;7.128;2022-10-24T06:03:27;16.30;1.00
2945;DHT22;1482;51.398;7.128;2022-10-24T06:05:52;16.30;1.00
2945;DHT22;1482;51.398;7.128;2022-10-24T06:08:18;16.30;1.00
2945;DHT22;1482;51.398;7.128;2022-10-24T06:10:48;16.30;1.00
2945;DHT22;1482;51.398;7.128;2022-10-24T06:13:15;16.30;1.00
2945;DHT22;1482;51.398;7.128;2022-10-24T06:15:42;16.30;1.00
2945;DHT22;1482;51.398;7.128;2022-10-24T06:18:07;16.30;1.00
2945;DHT22;1482;51.398;7.128;2022-10-24T06:20:33;16.30;1.00
2945;DHT22;1482;51.398;7.128;2022-10-24T06:22:58;16.30;1.00
2945;DHT22;1482;51.398;7.128;2022-10-24T06:25:24;16.40;1.00
2945;DHT22;1482;51.398;7.128;2022-10-24T06:27:50;16.40;1.00
2945;DHT22;1482;51.398;7.128;2022-10-24T06:30:16;16.40;1.00
2945;DHT22;1482;51.398;7.128;2022-10-24T06:32:41;16.40;1.00
2945;DHT22;1482;51.398;7.128;2022-10-24T06:35:07;16.50;1.00
2945;DHT22;1482;51.398;7.128;2022-10-24T06:37:33;16.50;1.00
2945;DHT22;1482;51.398;7.128;2022-10-24T06:39:59;16.60;1.00
2945;DHT22;1482;51.398;7.128;2022-10-24T06:42:25;16.60;1.00
2945;DHT22;1482;51.398;7.128;2022-10-24T06:44:50;16.70;1.00
2945;DHT22;1482;51.398;7.128;2022-10-24T06:47:17;16.80;1.00
2945;DHT22;1482;51.398;7.128;2022-10-24T06:49:42;16.80;1.00
2945;DHT22;1482;51.398;7.128;2022-10-24T06:52:08;16.80;1.00
2945;DHT22;1482;51.398;7.128;2022-10-24T06:54:33;16.80;1.00
2945;DHT22;1482;51.398;7.128;2022-10-24T06:57:00;16.90;1.00
2945;DHT22;1482;51.398;7.128;2022-10-24T06:59:26;16.90;1.00
2945;DHT22;1482;51.398;7.128;2022-10-24T07:01:52;17.00;1.00
2945;DHT22;1482;51.398;7.128;2022-10-24T07:04:17;17.00;1.00
2945;DHT22;1482;51.398;7.128;2022-10-24T07:06:43;17.10;1.00
2945;DHT22;1482;51.398;7.128;2022-10-24T07:09:11;17.20;1.00
2945;DHT22;1482;51.398;7.128;2022-10-24T07:11:36;17.30;1.00
2945;DHT22;1482;51.398;7.128;2022-10-24T07:14:02;17.50;1.00
2945;DHT22;1482;51.398;7.128;2022-10-24T07:16:28;17.70;1.00
2945;DHT22;1482;51.398;7.128;2022-10-24T07:18:54;18.20;1.00
2945;DHT22;1482;51.398;7.128;2022-10-24T07:21:26;18.40;1.00
2945;DHT22;1482;51.398;7.128;2022-10-24T07:23:53;18.70;1.00
2945;DHT22;1482;51.398;7.128;2022-10-24T07:26:19;19.20;1.00
2945;DHT22;1482;51.398;7.128;2022-10-24T07:28:46;19.70;1.00
2945;DHT22;1482;51.398;7.128;2022-10-24T07:31:23;19.90;1.00
2945;DHT22;1482;51.398;7.128;2022-10-24T07:33:50;20.30;1.00
2945;DHT22;1482;51.398;7.128;2022-10-24T07:36:20;20.40;1.00
2945;DHT22;1482;51.398;7.128;2022-10-24T07:38:48;20.70;1.00
2945;DHT22;1482;51.398;7.128;2022-10-24T07:41:14;20.80;1.00
2945;DHT22;1482;51.398;7.128;2022-10-24T07:43:40;21.20;1.00
2945;DHT22;1482;51.398;7.128;2022-10-24T07:46:10;21.80;1.00
2945;DHT22;1482;51.398;7.128;2022-10-24T07:48:37;21.70;1.00
2945;DHT22;1482;51.398;7.128;2022-10-24T07:51:11;22.00;1.00
2945;DHT22;1482;51.398;7.128;2022-10-24T07:53:37;23.00;1.00
2945;DHT22;1482;51.398;7.128;2022-10-24T07:56:03;23.40;1.00
2945;DHT22;1482;51.398;7.128;2022-10-24T07:58:35;23.80;1.00
2945;DHT22;1482;51.398;7.128;2022-10-24T08:01:22;23.40;1.00
2945;DHT22;1482;51.398;7.128;2022-10-24T08:03:48;22.60;1.00
2945;DHT22;1482;51.398;7.128;2022-10-24T08:06:20;21.70;1.00
2945;DHT22;1482;51.398;7.128;2022-10-24T08:08:45;21.00;1.00
2945;DHT22;1482;51.398;7.128;2022-10-24T08:11:19;20.80;1.00
2945;DHT22;1482;51.398;7.128;2022-10-24T08:13:46;21.10;1.00
2945;DHT22;1482;51.398;7.128;2022-10-24T08:16:13;21.90;1.00
2945;DHT22;1482;51.398;7.128;2022-10-24T08:18:40;22.60;1.00
2945;DHT22;1482;51.398;7.128;2022-10-24T08:21:08;22.40;1.00
2945;DHT22;1482;51.398;7.128;2022-10-24T08:23:35;22.30;1.00
2945;DHT22;1482;51.398;7.128;2022-10-24T08:26:08;21.80;1.00
2945;DHT22;1482;51.398;7.128;2022-10-24T08:28:34;22.30;1.00
2945;DHT22;1482;51.398;7.128;2022-10-24T08:31:01;23.10;1.00
2945;DHT22;1482;51.398;7.128;2022-10-24T08:33:28;23.40;1.00
2945;DHT22;1482;51.398;7.128;2022-10-24T08:35:57;23.60;1.00
2945;DHT22;1482;51.398;7.128;2022-10-24T08:38:24;23.70;1.00
2945;DHT22;1482;51.398;7.128;2022-10-24T08:40:49;23.30;1.00
2945;DHT22;1482;51.398;7.128;2022-10-24T08:43:16;23.10;1.00
2945;DHT22;1482;51.398;7.128;2022-10-24T08:48:16;22.20;1.00
2945;DHT22;1482;51.398;7.128;2022-10-24T08:50:48;21.70;1.00
2945;DHT22;1482;51.398;7.128;2022-10-24T08:55:50;20.20;1.00
2945;DHT22;1482;51.398;7.128;2022-10-24T08:58:24;19.70;1.00
2945;DHT22;1482;51.398;7.128;2022-10-24T09:00:52;19.20;1.00
2945;DHT22;1482;51.398;7.128;2022-10-24T09:03:45;19.10;1.00
2945;DHT22;1482;51.398;7.128;2022-10-24T09:06:23;18.90;1.00
2945;DHT22;1482;51.398;7.128;2022-10-24T09:13:56;18.60;1.00
2945;DHT22;1482;51.398;7.128;2022-10-24T09:16:24;18.50;1.00
2945;DHT22;1482;51.398;7.128;2022-10-24T09:18:53;18.30;1.00
2945;DHT22;1482;51.398;7.128;2022-10-24T09:21:20;18.30;1.00
2945;DHT22;1482;51.398;7.128;2022-10-24T09:23:47;18.00;1.00
2945;DHT22;1482;51.398;7.128;2022-10-24T09:26:25;17.90;1.00
2945;DHT22;1482;51.398;7.128;2022-10-24T09:28:52;17.80;1.00
2945;DHT22;1482;51.398;7.128;2022-10-24T09:31:21;17.80;1.00
2945;DHT22;1482;51.398;7.128;2022-10-24T09:33:50;17.90;1.00
2945;DHT22;1482;51.398;7.128;2022-10-24T09:36:18;18.00;1.00
2945;DHT22;1482;51.398;7.128;2022-10-24T09:38:45;18.20;1.00
2945;DHT22;1482;51.398;7.128;2022-10-24T09:41:26;18.20;1.00
2945;DHT22;1482;51.398;7.128;2022-10-24T09:43:58;18.20;1.00
2945;DHT22;1482;51.398;7.128;2022-10-24T09:46:28;18.10;1.00
2945;DHT22;1482;51.398;7.128;2022-10-24T09:48:58;18.10;1.00
2945;DHT22;1482;51.398;7.128;2022-10-24T09:51:48;18.20;1.00
2945;DHT22;1482;51.398;7.128;2022-10-24T10:02:25;18.00;1.00
2945;DHT22;1482;51.398;7.128;2022-10-24T10:07:32;17.90;1.00
2945;DHT22;1482;51.398;7.128;2022-10-24T10:10:06;17.90;1.00
2945;DHT22;1482;51.398;7.128;2022-10-24T10:12:41;18.00;1.00
2945;DHT22;1482;51.398;7.128;2022-10-24T10:17:54;18.90;1.00
2945;DHT22;1482;51.398;7.128;2022-10-24T10:22:54;19.20;1.00
2945;DHT22;1482;51.398;7.128;2022-10-24T10:25:31;19.20;1.00
2945;DHT22;1482;51.398;7.128;2022-10-24T10:27:57;19.10;1.00
2945;DHT22;1482;51.398;7.128;2022-10-24T10:30:23;19.00;1.00
2945;DHT22;1482;51.398;7.128;2022-10-24T10:33:18;19.00;1.00
2945;DHT22;1482;51.398;7.128;2022-10-24T10:35:58;18.90;1.00
2945;DHT22;1482;51.398;7.128;2022-10-24T10:38:50;18.90;1.00
2945;DHT22;1482;51.398;7.128;2022-10-24T10:47:11;18.70;1.00
2945;DHT22;1482;51.398;7.128;2022-10-24T10:49:39;18.80;1.00
2945;DHT22;1482;51.398;7.128;2022-10-24T10:52:23;18.80;1.00
2945;DHT22;1482;51.398;7.128;2022-10-24T10:57:40;18.70;1.00
2945;DHT22;1482;51.398;7.128;2022-10-24T11:00:16;18.50;1.00
2945;DHT22;1482;51.398;7.128;2022-10-24T11:02:56;18.50;1.00
2945;DHT22;1482;51.398;7.128;2022-10-24T11:08:06;18.40;1.00
2945;DHT22;1482;51.398;7.128;2022-10-24T11:10:39;18.20;1.00
2945;DHT22;1482;51.398;7.128;2022-10-24T11:13:12;18.20;1.00
2945;DHT22;1482;51.398;7.128;2022-10-24T11:15:42;18.10;1.00
2945;DHT22;1482;51.398;7.128;2022-10-24T11:18:17;18.10;1.00
2945;DHT22;1482;51.398;7.128;2022-10-24T11:20:51;18.20;1.00
2945;DHT22;1482;51.398;7.128;2022-10-24T11:23:23;18.20;1.00
2945;DHT22;1482;51.398;7.128;2022-10-24T11:26:12;18.10;1.00
2945;DHT22;1482;51.398;7.128;2022-10-24T11:31:44;18.10;1.00
2945;DHT22;1482;51.398;7.128;2022-10-24T11:34:22;18.10;1.00
2945;DHT22;1482;51.398;7.128;2022-10-24T11:39:58;18.10;1.00
2945;DHT22;1482;51.398;7.128;2022-10-24T11:42:26;18.20;1.00
2945;DHT22;1482;51.398;7.128;2022-10-24T11:45:16;18.30;1.00
2945;DHT22;1482;51.398;7.128;2022-10-24T11:53:35;18.20;1.00
2945;DHT22;1482;51.398;7.128;2022-10-24T11:56:26;18.20;1.00
2945;DHT22;1482;51.398;7.128;2022-10-24T11:59:05;18.00;1.00
2945;DHT22;1482;51.398;7.128;2022-10-24T12:20:32;17.80;1.00
2945;DHT22;1482;51.398;7.128;2022-10-24T12:22:59;17.80;1.00
2945;DHT22;1482;51.398;7.128;2022-10-24T12:25:37;17.70;1.00
2945;DHT22;1482;51.398;7.128;2022-10-24T12:28:05;17.70;1.00
2945;DHT22;1482;51.398;7.128;2022-10-24T12:30:34;17.70;1.00
2945;DHT22;1482;51.398;7.128;2022-10-24T12:33:21;17.60;1.00
2945;DHT22;1482;51.398;7.128;2022-10-24T12:35:49;17.50;1.00
2945;DHT22;1482;51.398;7.128;2022-10-24T12:39:02;17.50;1.00
2945;DHT22;1482;51.398;7.128;2022-10-24T12:44:35;17.40;1.00
2945;DHT22;1482;51.398;7.128;2022-10-24T12:47:24;17.40;8.40
2945;DHT22;1482;51.398;7.128;2022-10-24T12:49:50;17.40;23.60
2945;DHT22;1482;51.398;7.128;2022-10-24T12:54:56;17.50;39.30
2945;DHT22;1482;51.398;7.128;2022-10-24T12:57:34;17.70;43.50
2945;DHT22;1482;51.398;7.128;2022-10-24T13:00:18;17.90;19.60
2945;DHT22;1482;51.398;7.128;2022-10-24T13:06:04;18.20;1.00
2945;DHT22;1482;51.398;7.128;2022-10-24T13:08:46;18.30;1.00
2945;DHT22;1482;51.398;7.128;2022-10-24T13:11:35;18.30;1.00
2945;DHT22;1482;51.398;7.128;2022-10-24T13:14:32;18.30;1.00
2945;DHT22;1482;51.398;7.128;2022-10-24T13:17:12;18.60;1.00
2945;DHT22;1482;51.398;7.128;2022-10-24T13:19:40;18.90;1.00
2945;DHT22;1482;51.398;7.128;2022-10-24T13:22:26;19.00;1.00
2945;DHT22;1482;51.398;7.128;2022-10-24T13:24:53;19.10;1.00
2945;DHT22;1482;51.398;7.128;2022-10-24T13:27:28;19.20;1.00
2945;DHT22;1482;51.398;7.128;2022-10-24T13:32:30;19.20;1.00
2945;DHT22;1482;51.398;7.128;2022-10-24T13:34:57;19.10;1.00
2945;DHT22;1482;51.398;7.128;2022-10-24T13:37:43;19.20;1.00
2945;DHT22;1482;51.398;7.128;2022-10-24T13:43:00;19.30;1.00
2945;DHT22;1482;51.398;7.128;2022-10-24T13:45:35;19.20;1.00
2945;DHT22;1482;51.398;7.128;2022-10-24T13:48:09;19.20;1.00
2945;DHT22;1482;51.398;7.128;2022-10-24T13:50:40;19.10;1.00
2945;DHT22;1482;51.398;7.128;2022-10-24T13:53:47;19.10;1.00
2945;DHT22;1482;51.398;7.128;2022-10-24T13:56:15;19.00;1.00
2945;DHT22;1482;51.398;7.128;2022-10-24T13:58:43;18.90;1.00
2945;DHT22;1482;51.398;7.128;2022-10-24T14:01:24;19.00;1.00
2945;DHT22;1482;51.398;7.128;2022-10-24T14:03:52;19.00;1.00
2945;DHT22;1482;51.398;7.128;2022-10-24T14:06:28;19.00;1.00
2945;DHT22;1482;51.398;7.128;2022-10-24T14:08:57;19.00;1.00
2945;DHT22;1482;51.398;7.128;2022-10-24T14:11:25;19.00;1.00
2945;DHT22;1482;51.398;7.128;2022-10-24T14:13:54;19.00;1.00
2945;DHT22;1482;51.398;7.128;2022-10-24T14:16:29;18.90;1.00
2945;DHT22;1482;51.398;7.128;2022-10-24T14:19:32;18.70;1.00
2945;DHT22;1482;51.398;7.128;2022-10-24T14:21:58;18.60;1.00
2945;DHT22;1482;51.398;7.128;2022-10-24T14:24:24;18.50;1.00
2945;DHT22;1482;51.398;7.128;2022-10-24T14:26:50;18.40;1.00
2945;DHT22;1482;51.398;7.128;2022-10-24T14:29:26;18.30;1.00
2945;DHT22;1482;51.398;7.128;2022-10-24T14:32:13;18.40;1.00
2945;DHT22;1482;51.398;7.128;2022-10-24T14:34:40;18.60;1.00
2945;DHT22;1482;51.398;7.128;2022-10-24T14:37:15;18.60;1.00
2945;DHT22;1482;51.398;7.128;2022-10-24T14:39:43;18.80;1.00
2945;DHT22;1482;51.398;7.128;2022-10-24T14:42:14;18.80;1.00
2945;DHT22;1482;51.398;7.128;2022-10-24T14:44:41;18.70;1.00
2945;DHT22;1482;51.398;7.128;2022-10-24T14:47:23;18.70;1.00
2945;DHT22;1482;51.398;7.128;2022-10-24T14:49:50;18.60;1.00
2945;DHT22;1482;51.398;7.128;2022-10-24T14:52:30;18.60;1.00
2945;DHT22;1482;51.398;7.128;2022-10-24T14:55:03;18.50;1.00
2945;DHT22;1482;51.398;7.128;2022-10-24T14:57:31;18.50;1.00
2945;DHT22;1482;51.398;7.128;2022-10-24T14:59:59;18.40;1.00
2945;DHT22;1482;51.398;7.128;2022-10-24T15:02:36;18.40;1.00
2945;DHT22;1482;51.398;7.128;2022-10-24T15:07:38;18.40;1.00
2945;DHT22;1482;51.398;7.128;2022-10-24T15:17:47;18.30;1.00
2945;DHT22;1482;51.398;7.128;2022-10-24T15:20:16;18.20;1.00
2945;DHT22;1482;51.398;7.128;2022-10-24T15:22:50;18.10;1.00
2945;DHT22;1482;51.398;7.128;2022-10-24T15:27:50;18.00;1.00
2945;DHT22;1482;51.398;7.128;2022-10-24T15:30:20;17.90;1.00
2945;DHT22;1482;51.398;7.128;2022-10-24T15:32:48;17.90;1.00
2945;DHT22;1482;51.398;7.128;2022-10-24T15:35:14;18.00;1.00
2945;DHT22;1482;51.398;7.128;2022-10-24T15:37:50;17.90;1.00
2945;DHT22;1482;51.398;7.128;2022-10-24T15:40:20;17.90;1.00
2945;DHT22;1482;51.398;7.128;2022-10-24T15:42:46;17.90;1.00
2945;DHT22;1482;51.398;7.128;2022-10-24T15:45:13;17.90;1.00
2945;DHT22;1482;51.398;7.128;2022-10-24T15:47:39;17.90;1.00
2945;DHT22;1482;51.398;7.128;2022-10-24T15:50:05;17.90;1.00
2945;DHT22;1482;51.398;7.128;2022-10-24T15:52:30;17.90;1.00
2945;DHT22;1482;51.398;7.128;2022-10-24T15:54:56;17.90;1.00
2945;DHT22;1482;51.398;7.128;2022-10-24T15:57:21;17.80;1.00
2945;DHT22;1482;51.398;7.128;2022-10-24T15:59:47;17.80;1.00
2945;DHT22;1482;51.398;7.128;2022-10-24T16:02:18;17.80;1.00
2945;DHT22;1482;51.398;7.128;2022-10-24T16:04:45;17.60;6.20
2945;DHT22;1482;51.398;7.128;2022-10-24T16:07:11;17.50;15.10
2945;DHT22;1482;51.398;7.128;2022-10-24T16:09:37;17.50;26.10
2945;DHT22;1482;51.398;7.128;2022-10-24T16:12:02;17.40;34.30
2945;DHT22;1482;51.398;7.128;2022-10-24T16:14:28;17.30;50.00
2945;DHT22;1482;51.398;7.128;2022-10-24T16:16:55;17.20;64.30
2945;DHT22;1482;51.398;7.128;2022-10-24T16:19:21;17.20;76.60
2945;DHT22;1482;51.398;7.128;2022-10-24T16:21:46;17.10;88.00
2945;DHT22;1482;51.398;7.128;2022-10-24T16:24:12;17.00;99.50
2945;DHT22;1482;51.398;7.128;2022-10-24T16:26:38;17.00;99.90
2945;DHT22;1482;51.398;7.128;2022-10-24T16:29:04;16.90;99.90
2945;DHT22;1482;51.398;7.128;2022-10-24T16:31:30;16.90;99.90
2945;DHT22;1482;51.398;7.128;2022-10-24T16:33:57;16.80;99.90
2945;DHT22;1482;51.398;7.128;2022-10-24T16:36:23;16.70;99.90
2945;DHT22;1482;51.398;7.128;2022-10-24T16:38:49;16.60;99.90
2945;DHT22;1482;51.398;7.128;2022-10-24T16:41:16;16.50;99.90
2945;DHT22;1482;51.398;7.128;2022-10-24T16:43:43;16.40;99.90
2945;DHT22;1482;51.398;7.128;2022-10-24T16:46:13;16.30;99.90
2945;DHT22;1482;51.398;7.128;2022-10-24T16:48:39;16.20;99.90
2945;DHT22;1482;51.398;7.128;2022-10-24T16:51:11;16.00;99.90
2945;DHT22;1482;51.398;7.128;2022-10-24T16:53:37;16.00;99.90
2945;DHT22;1482;51.398;7.128;2022-10-24T16:56:02;15.90;99.90
2945;DHT22;1482;51.398;7.128;2022-10-24T16:58:28;15.90;99.90
2945;DHT22;1482;51.398;7.128;2022-10-24T17:01:04;15.80;99.90
2945;DHT22;1482;51.398;7.128;2022-10-24T17:03:30;15.70;99.90
2945;DHT22;1482;51.398;7.128;2022-10-24T17:05:56;15.70;99.90
2945;DHT22;1482;51.398;7.128;2022-10-24T17:08:22;15.70;99.90
2945;DHT22;1482;51.398;7.128;2022-10-24T17:10:48;15.70;99.90
2945;DHT22;1482;51.398;7.128;2022-10-24T17:13:13;15.60;99.90
2945;DHT22;1482;51.398;7.128;2022-10-24T17:15:39;15.70;99.90
2945;DHT22;1482;51.398;7.128;2022-10-24T17:18:05;15.60;99.90
2945;DHT22;1482;51.398;7.128;2022-10-24T17:20:31;15.60;99.90
2945;DHT22;1482;51.398;7.128;2022-10-24T17:22:57;15.70;99.90
2945;DHT22;1482;51.398;7.128;2022-10-24T17:25:25;15.70;99.90
2945;DHT22;1482;51.398;7.128;2022-10-24T17:27:52;15.80;99.90
2945;DHT22;1482;51.398;7.128;2022-10-24T17:30:24;15.80;99.90
2945;DHT22;1482;51.398;7.128;2022-10-24T17:32:51;15.80;99.90
2945;DHT22;1482;51.398;7.128;2022-10-24T17:35:19;15.80;99.90
2945;DHT22;1482;51.398;7.128;2022-10-24T17:40:17;15.90;99.90
2945;DHT22;1482;51.398;7.128;2022-10-24T17:42:43;16.00;99.90
2945;DHT22;1482;51.398;7.128;2022-10-24T17:45:14;16.00;99.90
2945;DHT22;1482;51.398;7.128;2022-10-24T17:47:40;15.80;99.90
2945;DHT22;1482;51.398;7.128;2022-10-24T17:50:06;15.70;99.90
2945;DHT22;1482;51.398;7.128;2022-10-24T17:52:31;15.60;99.90
2945;DHT22;1482;51.398;7.128;2022-10-24T17:54:57;15.50;99.90
2945;DHT22;1482;51.398;7.128;2022-10-24T17:57:22;15.30;99.90
2945;DHT22;1482;51.398;7.128;2022-10-24T17:59:48;15.20;99.90
2945;DHT22;1482;51.398;7.128;2022-10-24T18:02:13;15.10;99.90
2945;DHT22;1482;51.398;7.128;2022-10-24T18:04:39;15.10;99.90
2945;DHT22;1482;51.398;7.128;2022-10-24T18:07:07;15.20;99.90
2945;DHT22;1482;51.398;7.128;2022-10-24T18:09:32;15.10;99.90
2945;DHT22;1482;51.398;7.128;2022-10-24T18:12:01;14.90;99.90
2945;DHT22;1482;51.398;7.128;2022-10-24T18:14:27;14.80;99.90
2945;DHT22;1482;51.398;7.128;2022-10-24T18:16:53;14.60;99.90
2945;DHT22;1482;51.398;7.128;2022-10-24T18:19:18;14.60;99.90
2945;DHT22;1482;51.398;7.128;2022-10-24T18:21:44;14.50;99.90
2945;DHT22;1482;51.398;7.128;2022-10-24T18:24:10;14.50;99.90
2945;DHT22;1482;51.398;7.128;2022-10-24T18:26:36;14.40;99.90